Time;durP1;ratioP1;P1;durP2;ratioP2;P2;SDS_P1;SDS_P2;PMS_P1;PMS_P2;Temp;Humidity;BMP_temperature;BMP_pressure;BME280_temperature;BME280_humidity;BME280_pressure;Samples;Min_cycle;Max_cycle;Signal;HPM_P1;HPM_P2
2021/08/24 00:02:13;;;;;;;;;;;;;;;24.45;53.23;100856.66;5051300;28;1643;-50
2021/08/24 00:04:40;;;;;;;;;;;;;;;24.41;53.31;100845.31;5045532;28;1605;-50
2021/08/24 00:07:07;;;;;;;;;;;;;;;24.44;53.25;100858.50;5052358;28;1675;-50
2021/08/24 00:09:41;;;;;;;;;;;;;;;24.44;52.86;100853.09;5049188;28;1675;-50
2021/08/24 00:12:10;;;;;;;;;;;;;;;24.39;53.81;100853.63;5047676;28;1559;-50
2021/08/24 00:14:38;;;;;;;;;;;;;;;24.45;52.88;100854.78;5057667;28;1723;-50
2021/08/24 00:17:05;;;;;;;;;;;;;;;24.39;53.12;100853.63;5062260;28;1909;-50
2021/08/24 00:19:32;;;;;;;;;;;;;;;24.41;53.74;100845.31;5049843;28;1534;-50
2021/08/24 00:22:00;;;;;;;;;;;;;;;24.45;53.31;100846.66;5044832;28;1621;-51
2021/08/24 00:24:29;;;;;;;;;;;;;;;24.41;53.17;100858.84;5055648;28;1494;-51
2021/08/24 00:26:55;;;;;;;;;;;;;;;24.36;53.54;100845.84;5055328;28;1594;-50
2021/08/24 00:29:27;;;;;;;;;;;;;;;24.38;53.21;100842.97;5054913;28;1953;-50
2021/08/24 00:31:54;;;;;;;;;;;;;;;24.39;53.13;100841.94;5058311;28;1909;-50
2021/08/24 00:34:21;;;;;;;;;;;;;;;24.41;52.98;100832.66;5039773;28;1807;-50
2021/08/24 00:36:47;;;;;;;;;;;;;;;24.37;53.98;100831.31;5067791;28;1981;-51
2021/08/24 00:39:16;;;;;;;;;;;;;;;24.33;54.38;100846.19;5060321;28;1885;-50
2021/08/24 00:41:45;;;;;;;;;;;;;;;24.27;53.97;100827.09;5052458;28;1579;-50
2021/08/24 00:44:14;;;;;;;;;;;;;;;24.27;54.42;100841.44;5058351;28;1546;-50
2021/08/24 00:46:49;;;;;;;;;;;;;;;24.26;54.15;100828.13;5054928;28;1712;-50
2021/08/24 00:49:18;;;;;;;;;;;;;;;24.31;53.93;100845.53;5060941;28;1647;-50
2021/08/24 00:51:46;;;;;;;;;;;;;;;24.32;53.87;100859.88;5055799;28;1630;-50
2021/08/24 00:54:14;;;;;;;;;;;;;;;24.35;53.73;100837.88;5054497;28;1899;-50
2021/08/24 00:56:50;;;;;;;;;;;;;;;24.36;53.91;100828.78;5052093;28;2561;-50
2021/08/24 00:59:17;;;;;;;;;;;;;;;24.32;53.97;100846.34;5055776;28;1836;-51
2021/08/24 01:01:47;;;;;;;;;;;;;;;24.24;53.40;100827.44;5059375;28;1784;-50
2021/08/24 01:04:14;;;;;;;;;;;;;;;24.27;53.63;100821.69;5053761;28;1664;-50
2021/08/24 01:06:45;;;;;;;;;;;;;;;24.26;54.05;100833.53;5049304;28;1538;-50
2021/08/24 01:09:18;;;;;;;;;;;;;;;24.27;53.86;100846.00;5049446;28;1894;-51
2021/08/24 01:11:49;;;;;;;;;;;;;;;24.29;53.71;100838.56;5055778;28;1760;-50
2021/08/24 01:14:28;;;;;;;;;;;;;;;24.22;54.12;100843.81;5067422;28;1910;-50
2021/08/24 01:17:01;;;;;;;;;;;;;;;24.21;54.05;100842.13;5052710;28;1914;-51
2021/08/24 01:19:50;;;;;;;;;;;;;;;24.22;53.58;100851.91;5047001;28;2258;-50
2021/08/24 01:22:42;;;;;;;;;;;;;;;24.20;54.25;100849.38;5054180;28;1531;-50
2021/08/24 01:25:13;;;;;;;;;;;;;;;24.24;53.88;100846.34;4972950;28;1562;-51
2021/08/24 01:27:43;;;;;;;;;;;;;;;24.20;53.76;100843.97;5062894;28;1748;-50
2021/08/24 01:30:25;;;;;;;;;;;;;;;24.20;53.97;100846.69;5055996;28;1718;-50
2021/08/24 01:33:12;;;;;;;;;;;;;;;24.27;53.64;100846.00;5047589;28;1637;-50
2021/08/24 01:36:01;;;;;;;;;;;;;;;24.15;53.71;100848.19;5055223;28;1816;-50
2021/08/24 01:38:37;;;;;;;;;;;;;;;24.16;53.43;100839.91;5058701;28;2021;-50
2021/08/24 01:41:08;;;;;;;;;;;;;;;24.11;53.88;100842.28;5061916;28;1531;-50
2021/08/24 01:43:38;;;;;;;;;;;;;;;24.00;54.14;100835.34;5055424;28;1603;-50
2021/08/24 01:46:12;;;;;;;;;;;;;;;24.03;54.30;100836.88;5058739;28;1816;-50
2021/08/24 01:48:44;;;;;;;;;;;;;;;24.03;53.95;100828.75;5054819;28;1812;-50
2021/08/24 01:51:13;;;;;;;;;;;;;;;23.99;54.24;100833.69;5056730;28;2055;-50
2021/08/24 01:53:45;;;;;;;;;;;;;;;23.80;54.52;100850.19;5059611;28;1623;-50
2021/08/24 01:56:16;;;;;;;;;;;;;;;23.74;54.81;100843.53;5052199;28;1557;-50
2021/08/24 01:58:48;;;;;;;;;;;;;;;23.73;54.61;100844.53;5055583;28;1973;-50
2021/08/24 02:01:24;;;;;;;;;;;;;;;23.77;54.45;100835.13;5137444;22;3828;-50
2021/08/24 02:03:52;;;;;;;;;;;;;;;23.88;54.00;100830.44;5043626;28;1772;-50
2021/08/24 02:06:20;;;;;;;;;;;;;;;23.85;54.35;100830.75;5049179;28;1842;-50
2021/08/24 02:08:55;;;;;;;;;;;;;;;23.88;53.98;100817.78;5045926;28;1674;-50
2021/08/24 02:11:30;;;;;;;;;;;;;;;23.97;53.97;100832.13;5046516;28;1641;-50
2021/08/24 02:13:59;;;;;;;;;;;;;;;23.99;53.72;100828.28;5051406;28;1788;-50
2021/08/24 02:16:27;;;;;;;;;;;;;;;23.92;54.21;100815.59;5047650;28;2127;-50
2021/08/24 02:18:55;;;;;;;;;;;;;;;23.87;54.20;100820.66;5045344;28;1981;-50
2021/08/24 02:21:24;;;;;;;;;;;;;;;23.84;54.61;100807.50;5050919;28;1469;-50
2021/08/24 02:23:54;;;;;;;;;;;;;;;23.82;53.95;100816.59;5048507;28;1948;-50
2021/08/24 02:26:22;;;;;;;;;;;;;;;23.79;54.24;100811.50;5051030;28;1545;-53
2021/08/24 02:28:50;;;;;;;;;;;;;;;23.75;54.08;100812.81;5049736;28;1729;-50
2021/08/24 02:31:21;;;;;;;;;;;;;;;23.72;54.05;100815.03;5047220;28;1766;-50
2021/08/24 02:33:52;;;;;;;;;;;;;;;23.61;54.22;100800.81;5049453;28;1670;-50
2021/08/24 02:36:20;;;;;;;;;;;;;;;23.63;54.35;100814.16;5048245;28;1696;-50
2021/08/24 02:38:48;;;;;;;;;;;;;;;23.67;54.08;100801.16;5048022;28;1906;-50
2021/08/24 02:41:20;;;;;;;;;;;;;;;23.65;54.41;100809.44;5048156;28;1519;-50
2021/08/24 02:43:51;;;;;;;;;;;;;;;23.63;54.00;100804.22;5048988;28;1841;-50
2021/08/24 02:46:19;;;;;;;;;;;;;;;23.71;53.90;100802.53;5047291;28;1480;-50
2021/08/24 02:48:48;;;;;;;;;;;;;;;23.66;53.91;100800.31;5043389;28;1859;-50
2021/08/24 02:51:17;;;;;;;;;;;;;;;23.55;54.02;100797.94;5051327;28;1655;-50
2021/08/24 02:53:44;;;;;;;;;;;;;;;23.59;53.96;100807.38;5048501;28;1777;-50
2021/08/24 02:56:11;;;;;;;;;;;;;;;23.63;53.82;100806.03;5045607;28;1708;-50
2021/08/24 02:58:39;;;;;;;;;;;;;;;23.61;54.06;100802.66;5045260;28;1963;-50
2021/08/24 03:01:05;;;;;;;;;;;;;;;23.62;53.58;100797.13;5049764;28;1583;-50
2021/08/24 03:03:32;;;;;;;;;;;;;;;23.62;53.63;100809.78;5042689;28;1570;-50
2021/08/24 03:05:59;;;;;;;;;;;;;;;23.58;53.43;100808.41;5036340;28;1555;-50
2021/08/24 03:08:25;;;;;;;;;;;;;;;23.48;53.97;100807.72;5041182;28;1967;-50
2021/08/24 03:10:52;;;;;;;;;;;;;;;23.54;53.80;100810.59;5038538;28;1507;-50
2021/08/24 03:13:23;;;;;;;;;;;;;;;23.60;53.68;100817.19;5035658;28;1911;-50
2021/08/24 03:15:53;;;;;;;;;;;;;;;23.59;53.27;100820.88;5041825;28;1591;-50
2021/08/24 03:18:22;;;;;;;;;;;;;;;23.51;53.49;100820.88;5040064;28;1906;-50
2021/08/24 03:21:01;;;;;;;;;;;;;;;23.57;53.38;100833.69;5047855;28;1484;-50
2021/08/24 03:23:29;;;;;;;;;;;;;;;23.59;53.42;100815.50;5044955;28;1909;-50
2021/08/24 03:25:56;;;;;;;;;;;;;;;23.65;52.85;100814.81;5049986;28;1933;-50
2021/08/24 03:28:24;;;;;;;;;;;;;;;23.69;53.13;100816.19;5050749;28;1746;-50
2021/08/24 03:30:55;;;;;;;;;;;;;;;23.71;52.71;100830.34;5046774;28;1533;-50
2021/08/24 03:33:23;;;;;;;;;;;;;;;23.59;53.38;100831.69;5045664;28;1749;-50
2021/08/24 03:35:51;;;;;;;;;;;;;;;23.63;53.06;100822.25;5049875;28;1759;-50
2021/08/24 03:38:18;;;;;;;;;;;;;;;23.61;53.36;100830.50;5049075;28;1973;-50
2021/08/24 03:40:45;;;;;;;;;;;;;;;23.52;53.66;100826.09;5051738;28;1787;-50
2021/08/24 03:43:12;;;;;;;;;;;;;;;23.43;53.55;100818.97;5046774;28;1624;-50
2021/08/24 03:45:39;;;;;;;;;;;;;;;23.40;53.02;100839.06;5045405;28;1807;-50
2021/08/24 03:48:07;;;;;;;;;;;;;;;23.50;53.08;100840.78;5050499;28;1578;-50
2021/08/24 03:50:33;;;;;;;;;;;;;;;23.55;52.96;100830.31;5048196;28;1592;-50
2021/08/24 03:53:00;;;;;;;;;;;;;;;23.57;52.51;100829.13;5050456;28;1612;-50
2021/08/24 03:55:26;;;;;;;;;;;;;;;23.53;52.83;100835.88;5048171;28;1854;-50
2021/08/24 03:57:53;;;;;;;;;;;;;;;23.56;52.98;100842.81;5050981;28;1981;-50
2021/08/24 04:00:19;;;;;;;;;;;;;;;23.58;53.24;100838.09;5053189;28;1773;-50
2021/08/24 04:02:46;;;;;;;;;;;;;;;23.47;53.12;100833.84;5047177;28;1719;-50
2021/08/24 04:05:14;;;;;;;;;;;;;;;23.46;53.25;100842.09;5051736;28;2187;-50
2021/08/24 04:07:48;;;;;;;;;;;;;;;23.50;53.19;100844.31;5047892;28;1872;-49
2021/08/24 04:12:58;;;;;;;;;;;;;;;23.51;53.44;100850.56;5053083;28;2579;-50
2021/08/24 04:15:25;;;;;;;;;;;;;;;23.41;53.74;100848.81;5059545;28;1604;-50
2021/08/24 04:20:46;;;;;;;;;;;;;;;23.51;53.13;100839.75;5046688;28;2528;-50
2021/08/24 04:23:14;;;;;;;;;;;;;;;23.65;52.95;100851.78;5050734;28;1802;-49
2021/08/24 04:25:42;;;;;;;;;;;;;;;23.73;52.30;100851.81;5050266;28;1949;-50
2021/08/24 04:28:23;;;;;;;;;;;;;;;23.54;53.15;100853.78;5051648;28;1495;-50
2021/08/24 04:30:50;;;;;;;;;;;;;;;23.45;53.02;100859.31;5043607;28;2482;-49
2021/08/24 04:33:22;;;;;;;;;;;;;;;23.42;53.09;100861.31;5043297;28;1533;-49
2021/08/24 04:36:00;;;;;;;;;;;;;;;23.54;53.21;100861.03;5048500;28;1723;-49
2021/08/24 04:38:35;;;;;;;;;;;;;;;23.61;53.01;100867.47;5044904;28;1902;-50
2021/08/24 04:43:43;;;;;;;;;;;;;;;23.90;52.46;100869.78;5045531;28;1945;-50
2021/08/24 04:46:17;;;;;;;;;;;;;;;24.05;52.81;100875.34;5052075;28;1764;-51
2021/08/24 04:48:47;;;;;;;;;;;;;;;24.12;51.95;100860.19;5040403;28;1934;-50
2021/08/24 04:51:29;;;;;;;;;;;;;;;24.11;52.59;100869.28;5049225;28;1545;-51
2021/08/24 04:53:55;;;;;;;;;;;;;;;23.84;52.35;100873.13;5050585;28;1705;-50
2021/08/24 04:56:23;;;;;;;;;;;;;;;24.12;51.83;100860.19;5052351;28;1589;-51
2021/08/24 04:58:53;;;;;;;;;;;;;;;24.21;52.35;100859.19;5052822;28;1902;-51
2021/08/24 05:01:23;;;;;;;;;;;;;;;24.15;53.08;100854.47;5053500;28;1582;-50
2021/08/24 05:03:49;;;;;;;;;;;;;;;23.93;53.64;100860.50;5034363;28;1596;-50
2021/08/24 05:06:29;;;;;;;;;;;;;;;24.05;53.81;100861.84;5046088;28;2783;-50
2021/08/24 05:08:56;;;;;;;;;;;;;;;24.27;53.19;100854.09;5042003;28;1991;-50
2021/08/24 05:11:24;;;;;;;;;;;;;;;24.39;53.55;100850.06;5045549;28;1906;-50
2021/08/24 05:13:51;;;;;;;;;;;;;;;24.46;53.11;100864.59;5043010;28;1689;-51
2021/08/24 05:16:18;;;;;;;;;;;;;;;24.45;53.57;100860.19;5049354;28;1910;-50
2021/08/24 05:18:48;;;;;;;;;;;;;;;24.43;53.88;100856.81;5043897;28;1975;-50
2021/08/24 05:21:19;;;;;;;;;;;;;;;24.46;54.62;100851.06;5046475;28;1922;-51
2021/08/24 05:23:47;;;;;;;;;;;;;;;24.41;54.30;100872.34;5044620;28;1769;-52
2021/08/24 05:26:16;;;;;;;;;;;;;;;24.47;53.86;100869.00;5049340;28;1844;-51
2021/08/24 05:28:43;;;;;;;;;;;;;;;24.52;54.47;100866.66;5048645;28;1887;-51
2021/08/24 05:31:09;;;;;;;;;;;;;;;24.64;54.29;100871.72;5046019;28;1758;-51
2021/08/24 05:33:36;;;;;;;;;;;;;;;24.81;54.33;100870.69;5044531;28;1565;-51
2021/08/24 05:36:04;;;;;;;;;;;;;;;24.86;54.90;100865.59;5047797;28;1740;-51
2021/08/24 05:38:34;;;;;;;;;;;;;;;24.66;55.26;100866.97;5040409;28;2003;-51
2021/08/24 05:41:08;;;;;;;;;;;;;;;24.52;54.92;100874.75;5052688;28;1770;-51
2021/08/24 05:43:38;;;;;;;;;;;;;;;24.60;54.96;100868.50;5050931;28;1574;-51
2021/08/24 05:46:07;;;;;;;;;;;;;;;24.76;54.65;100859.53;5049928;28;1711;-51
2021/08/24 05:48:38;;;;;;;;;;;;;;;24.79;54.96;100848.38;5041417;28;1917;-51
2021/08/24 05:51:08;;;;;;;;;;;;;;;24.86;55.36;100846.66;5047710;28;1637;-51
2021/08/24 05:53:44;;;;;;;;;;;;;;;24.99;54.43;100852.38;5044169;28;1995;-51
2021/08/24 05:56:13;;;;;;;;;;;;;;;25.07;55.64;100856.06;5045627;28;1544;-51
2021/08/24 05:58:41;;;;;;;;;;;;;;;25.09;55.29;100845.91;5043472;28;2022;-51
2021/08/24 06:01:17;;;;;;;;;;;;;;;24.99;55.87;100857.78;5042322;28;1774;-51
2021/08/24 06:03:43;;;;;;;;;;;;;;;24.99;54.82;100846.97;5042396;28;1792;-51
2021/08/24 06:06:16;;;;;;;;;;;;;;;24.97;54.87;100850.88;5048934;28;1894;-51
2021/08/24 06:08:44;;;;;;;;;;;;;;;24.93;54.88;100852.22;5047386;28;1526;-51
2021/08/24 06:11:15;;;;;;;;;;;;;;;24.94;54.96;100846.63;5047226;28;1759;-51
2021/08/24 06:13:43;;;;;;;;;;;;;;;24.99;54.64;100852.38;5042981;28;1859;-51
2021/08/24 06:16:31;;;;;;;;;;;;;;;25.06;55.00;100852.53;5045863;28;1894;-51
2021/08/24 06:18:58;;;;;;;;;;;;;;;25.12;54.63;100862.66;5045494;28;1996;-51
2021/08/24 06:21:27;;;;;;;;;;;;;;;25.11;53.80;100839.31;5044007;28;2039;-51
2021/08/24 06:23:56;;;;;;;;;;;;;;;25.09;53.74;100843.22;5045134;28;1942;-51
2021/08/24 06:26:25;;;;;;;;;;;;;;;25.12;53.25;100851.00;5052148;28;1818;-51
2021/08/24 06:28:53;;;;;;;;;;;;;;;25.13;53.50;100852.69;5050375;28;1483;-51
2021/08/24 06:31:24;;;;;;;;;;;;;;;25.18;53.39;100861.13;5049158;28;1750;-51
2021/08/24 06:33:54;;;;;;;;;;;;;;;25.15;53.60;100837.13;5044222;28;1680;-51
2021/08/24 06:36:24;;;;;;;;;;;;;;;25.22;53.96;100846.25;5048171;28;1626;-51
2021/08/24 06:38:52;;;;;;;;;;;;;;;25.29;53.37;100851.81;5042497;28;1907;-51
2021/08/24 06:41:28;;;;;;;;;;;;;;;25.24;53.84;100846.91;5047511;28;1709;-51
2021/08/24 06:43:55;;;;;;;;;;;;;;;25.23;52.99;100842.53;5048825;28;1858;-51
2021/08/24 06:46:23;;;;;;;;;;;;;;;25.31;53.67;100857.91;5050460;28;1962;-51
2021/08/24 06:48:58;;;;;;;;;;;;;;;25.30;53.73;100848.91;5038561;28;1847;-53
2021/08/24 06:51:24;;;;;;;;;;;;;;;25.36;53.07;100855.50;5046269;28;1905;-51
2021/08/24 06:53:51;;;;;;;;;;;;;;;25.38;53.00;100856.16;5050490;28;1407;-50
2021/08/24 06:56:17;;;;;;;;;;;;;;;25.38;52.87;100848.88;5045258;28;1833;-49
2021/08/24 06:58:47;;;;;;;;;;;;;;;25.37;53.70;100851.78;5050073;28;1902;-50
2021/08/24 07:01:14;;;;;;;;;;;;;;;25.38;53.17;100851.59;5048509;28;1710;-50
2021/08/24 07:03:40;;;;;;;;;;;;;;;25.35;54.18;100861.94;5048605;28;1952;-50
2021/08/24 07:06:14;;;;;;;;;;;;;;;25.43;53.27;100850.22;5048977;28;1656;-51
2021/08/24 07:08:41;;;;;;;;;;;;;;;25.41;54.15;100845.00;5049227;28;1605;-51
2021/08/24 07:11:08;;;;;;;;;;;;;;;25.42;53.11;100843.97;5050491;28;2108;-51
2021/08/24 07:13:35;;;;;;;;;;;;;;;25.36;53.69;100848.22;5040968;28;1890;-51
2021/08/24 07:16:05;;;;;;;;;;;;;;;25.42;54.26;100867.50;5046778;28;1902;-51
2021/08/24 07:18:31;;;;;;;;;;;;;;;25.40;53.97;100854.97;5050478;28;1723;-51
2021/08/24 07:20:58;;;;;;;;;;;;;;;25.44;54.27;100854.63;5050890;28;1942;-51
2021/08/24 07:23:24;;;;;;;;;;;;;;;25.44;54.25;100838.38;5048133;28;1568;-51
2021/08/24 07:25:51;;;;;;;;;;;;;;;25.47;53.57;100854.28;5046752;28;1851;-51
2021/08/24 07:28:17;;;;;;;;;;;;;;;25.44;53.63;100855.47;5049282;28;1852;-51
2021/08/24 07:30:45;;;;;;;;;;;;;;;25.45;53.54;100848.19;5046754;28;2050;-51
2021/08/24 07:33:27;;;;;;;;;;;;;;;25.48;53.58;100840.53;5045454;28;1346;-51
2021/08/24 07:36:07;;;;;;;;;;;;;;;25.51;54.40;100845.63;5045071;28;2077;-51
2021/08/24 07:38:54;;;;;;;;;;;;;;;25.55;53.46;100848.81;5041179;28;1486;-50
2021/08/24 07:41:31;;;;;;;;;;;;;;;25.55;54.58;100840.69;5043114;28;1778;-51
2021/08/24 07:44:00;;;;;;;;;;;;;;;25.61;54.32;100850.81;5051522;28;1777;-51
2021/08/24 07:46:31;;;;;;;;;;;;;;;25.54;53.94;100834.41;5051226;28;1544;-52
2021/08/24 07:49:01;;;;;;;;;;;;;;;25.55;54.72;100843.41;5039568;28;1871;-50
2021/08/24 07:54:11;;;;;;;;;;;;;;;25.59;54.29;100856.41;5043963;28;2594;-50
2021/08/24 07:56:37;;;;;;;;;;;;;;;25.56;54.98;100847.78;5043669;28;1973;-51
2021/08/24 07:59:06;;;;;;;;;;;;;;;25.53;54.99;100831.91;5048908;28;1984;-50
2021/08/24 08:01:33;;;;;;;;;;;;;;;25.50;54.61;100832.25;5048521;28;1817;-51
2021/08/24 08:04:06;;;;;;;;;;;;;;;25.53;54.37;100842.75;5044251;28;1561;-51
2021/08/24 08:06:39;;;;;;;;;;;;;;;25.39;56.04;100836.22;5043061;28;2208;-51
2021/08/24 08:09:13;;;;;;;;;;;;;;;24.45;55.23;100822.34;5046588;28;1558;-50
2021/08/24 08:11:41;;;;;;;;;;;;;;;23.97;54.52;100837.53;5039773;28;1739;-51
2021/08/24 08:14:09;;;;;;;;;;;;;;;23.58;54.12;100835.41;5046475;28;1490;-49
2021/08/24 08:16:36;;;;;;;;;;;;;;;23.26;53.89;100836.97;5036811;28;1705;-47
2021/08/24 08:19:03;;;;;;;;;;;;;;;23.12;53.57;100849.22;5051412;28;1973;-51
2021/08/24 08:21:30;;;;;;;;;;;;;;;23.08;53.40;100822.72;5048681;28;1751;-51
2021/08/24 08:23:58;;;;;;;;;;;;;;;23.15;53.74;100839.94;5049625;28;1902;-51
2021/08/24 08:26:24;;;;;;;;;;;;;;;23.26;54.11;100826.19;5046279;28;2024;-51
2021/08/24 08:28:51;;;;;;;;;;;;;;;23.44;54.54;100831.47;5051150;28;1632;-50
2021/08/24 08:31:18;;;;;;;;;;;;;;;23.59;54.94;100831.69;5045870;28;1788;-51
2021/08/24 08:33:44;;;;;;;;;;;;;;;23.61;55.27;100825.09;5041233;28;1530;-51
2021/08/24 08:36:11;;;;;;;;;;;;;;;23.65;55.42;100825.63;5048028;28;2045;-51
2021/08/24 08:38:37;;;;;;;;;;;;;;;23.73;56.14;100828.34;5050030;28;1693;-51
2021/08/24 08:41:08;;;;;;;;;;;;;;;23.70;56.30;100817.88;5051010;28;1901;-51
2021/08/24 08:43:40;;;;;;;;;;;;;;;23.68;57.10;100822.59;5052091;28;1774;-51
2021/08/24 08:46:11;;;;;;;;;;;;;;;23.68;57.45;100811.81;5054002;28;1616;-51
2021/08/24 08:48:41;;;;;;;;;;;;;;;23.72;58.08;100804.22;5045964;28;1682;-52
2021/08/24 08:51:14;;;;;;;;;;;;;;;23.68;58.34;100814.50;5048577;28;2045;-51
2021/08/24 08:53:43;;;;;;;;;;;;;;;23.59;58.93;100810.09;5054124;28;2018;-51
2021/08/24 08:56:13;;;;;;;;;;;;;;;23.58;58.62;100816.50;5042291;28;1846;-51
2021/08/24 08:58:45;;;;;;;;;;;;;;;23.63;59.13;100806.03;5051896;28;1773;-51
2021/08/24 09:01:15;;;;;;;;;;;;;;;23.66;59.09;100810.28;5051236;28;1973;-51
2021/08/24 09:03:54;;;;;;;;;;;;;;;23.57;59.36;100802.16;5044996;28;1306;-51
2021/08/24 09:06:22;;;;;;;;;;;;;;;23.57;59.56;100801.31;5053295;28;1675;-51
2021/08/24 09:08:49;;;;;;;;;;;;;;;23.64;59.84;100821.25;5051487;28;1924;-51
2021/08/24 09:11:17;;;;;;;;;;;;;;;23.60;59.74;100790.19;5051526;28;1643;-51
2021/08/24 09:13:46;;;;;;;;;;;;;;;23.63;59.70;100796.13;5054322;28;1638;-51
2021/08/24 09:16:19;;;;;;;;;;;;;;;23.63;60.03;100798.81;5047543;28;1704;-51
2021/08/24 09:18:47;;;;;;;;;;;;;;;23.51;60.47;100783.91;5056768;28;1800;-51
2021/08/24 09:21:17;;;;;;;;;;;;;;;23.57;60.09;100785.13;5047419;28;1995;-51
2021/08/24 09:23:44;;;;;;;;;;;;;;;23.50;60.37;100781.41;5046010;28;1662;-51
2021/08/24 09:26:25;;;;;;;;;;;;;;;23.48;60.50;100786.13;5047356;28;1616;-51
2021/08/24 09:28:54;;;;;;;;;;;;;;;23.46;60.48;100780.00;5050435;28;1713;-51
2021/08/24 09:31:22;;;;;;;;;;;;;;;23.49;60.48;100780.53;5051540;28;1885;-51
2021/08/24 09:33:49;;;;;;;;;;;;;;;23.51;60.48;100774.97;5047929;28;1811;-51
2021/08/24 09:36:15;;;;;;;;;;;;;;;23.49;60.82;100782.41;5050435;28;1829;-51
2021/08/24 09:38:49;;;;;;;;;;;;;;;23.48;61.23;100786.13;5051407;28;1498;-51
2021/08/24 09:41:35;;;;;;;;;;;;;;;23.45;61.08;100781.88;5047125;28;1902;-52
2021/08/24 09:44:17;;;;;;;;;;;;;;;23.48;61.00;100778.88;5047269;28;1590;-52
2021/08/24 09:46:51;;;;;;;;;;;;;;;23.41;61.08;100758.94;5043118;28;2121;-50
2021/08/24 09:49:31;;;;;;;;;;;;;;;23.36;60.97;100775.63;5041317;28;1581;-52
2021/08/24 09:52:02;;;;;;;;;;;;;;;23.30;60.35;100757.41;5047406;28;1779;-51
2021/08/24 09:54:34;;;;;;;;;;;;;;;23.54;60.03;100766.56;5062544;28;1195;-51
2021/08/24 09:57:16;;;;;;;;;;;;;;;24.01;58.87;100757.84;5045704;28;1523;-51
2021/08/24 09:59:47;;;;;;;;;;;;;;;24.36;58.11;100753.94;5048841;28;2493;-50
2021/08/24 10:02:28;;;;;;;;;;;;;;;24.57;57.92;100747.16;5051108;28;1619;-51
2021/08/24 10:04:55;;;;;;;;;;;;;;;24.65;57.42;100732.78;5052958;28;2175;-51
2021/08/24 10:07:31;;;;;;;;;;;;;;;24.73;57.10;100736.31;5053596;28;1685;-50
2021/08/24 10:09:58;;;;;;;;;;;;;;;24.85;57.74;100746.75;5052934;28;2098;-50
2021/08/24 10:12:30;;;;;;;;;;;;;;;24.92;57.67;100745.88;5050107;28;1697;-51
2021/08/24 10:17:40;;;;;;;;;;;;;;;25.00;56.71;100729.59;5052726;28;1833;-51
2021/08/24 10:20:22;;;;;;;;;;;;;;;25.02;57.20;100738.38;5053233;28;1976;-52
2021/08/24 10:22:51;;;;;;;;;;;;;;;25.12;56.58;100742.75;5050073;28;1628;-52
2021/08/24 10:25:41;;;;;;;;;;;;;;;25.10;57.57;100739.38;5044901;28;1535;-52
2021/08/24 10:28:23;;;;;;;;;;;;;;;25.14;57.35;100724.47;5052241;28;1792;-52
2021/08/24 10:30:52;;;;;;;;;;;;;;;25.19;57.36;100731.03;5041847;28;1709;-52
2021/08/24 10:33:23;;;;;;;;;;;;;;;25.23;57.25;100704.50;5049411;28;1514;-52
2021/08/24 10:35:53;;;;;;;;;;;;;;;25.28;56.80;100720.19;5044012;28;1499;-53
2021/08/24 10:38:35;;;;;;;;;;;;;;;25.23;57.71;100723.44;5041777;28;1626;-52
2021/08/24 10:41:02;;;;;;;;;;;;;;;25.24;58.08;100722.41;5049639;28;1969;-52
2021/08/24 10:43:31;;;;;;;;;;;;;;;25.28;58.30;100721.03;5047882;28;1680;-52
2021/08/24 10:46:07;;;;;;;;;;;;;;;25.35;56.71;100716.59;5042272;28;1775;-52
2021/08/24 10:48:35;;;;;;;;;;;;;;;25.46;57.07;100717.22;5048298;28;1747;-52
2021/08/24 10:51:05;;;;;;;;;;;;;;;25.55;56.52;100719.69;5049816;28;1775;-52
2021/08/24 10:53:36;;;;;;;;;;;;;;;25.53;57.18;100708.19;5047207;28;1697;-52
2021/08/24 10:56:07;;;;;;;;;;;;;;;25.58;56.32;100705.78;5052117;28;1620;-52
2021/08/24 10:58:37;;;;;;;;;;;;;;;25.66;57.60;100709.44;5051955;28;1909;-52
2021/08/24 11:01:05;;;;;;;;;;;;;;;25.75;57.78;100694.84;5050797;28;1922;-52
2021/08/24 11:03:42;;;;;;;;;;;;;;;25.84;57.50;100692.88;5043014;28;1563;-52
2021/08/24 11:06:13;;;;;;;;;;;;;;;25.87;57.91;100697.94;5049154;28;1659;-52
2021/08/24 11:08:47;;;;;;;;;;;;;;;25.89;58.40;100704.88;5050549;28;1804;-53
2021/08/24 11:11:21;;;;;;;;;;;;;;;25.96;58.01;100696.88;5049015;28;1596;-52
2021/08/24 11:14:06;;;;;;;;;;;;;;;26.00;57.78;100692.75;5044788;28;1668;-53
2021/08/24 11:16:41;;;;;;;;;;;;;;;26.02;58.37;100695.28;5044630;28;1805;-53
2021/08/24 11:22:07;;;;;;;;;;;;;;;25.99;57.80;100691.94;5041295;28;2310;-53
2021/08/24 11:24:39;;;;;;;;;;;;;;;25.92;58.08;100695.56;5045213;28;1548;-53
2021/08/24 11:27:13;;;;;;;;;;;;;;;25.68;59.49;100678.44;5047423;28;1270;-52
2021/08/24 11:29:45;;;;;;;;;;;;;;;24.96;58.33;100674.16;5039150;28;1272;-54
2021/08/24 11:35:07;;;;;;;;;;;;;;;23.84;56.96;100676.00;5044478;28;1619;-52
2021/08/24 11:37:36;;;;;;;;;;;;;;;23.80;56.54;100691.69;5044037;28;1437;-52
2021/08/24 11:40:06;;;;;;;;;;;;;;;23.63;56.50;100704.31;5039814;28;1981;-52
2021/08/24 11:42:37;;;;;;;;;;;;;;;23.62;56.20;100675.63;5044849;28;1398;-52
2021/08/24 11:45:09;;;;;;;;;;;;;;;23.71;56.45;100679.16;5044442;28;1532;-52
2021/08/24 11:47:49;;;;;;;;;;;;;;;23.74;56.94;100678.84;5042233;28;1343;-52
2021/08/24 11:53:06;;;;;;;;;;;;;;;23.80;57.59;100666.56;5043166;28;2349;-52
2021/08/24 11:55:56;;;;;;;;;;;;;;;23.77;57.60;100656.91;5050306;28;1660;-52
2021/08/24 11:58:36;;;;;;;;;;;;;;;23.75;56.98;100661.59;5050858;28;1817;-52
2021/08/24 12:01:05;;;;;;;;;;;;;;;23.62;57.76;100681.03;5049884;28;1910;-52
2021/08/24 12:03:35;;;;;;;;;;;;;;;23.65;57.50;100679.00;5046641;28;1663;-52
2021/08/24 12:06:06;;;;;;;;;;;;;;;23.68;58.18;100684.06;5043330;28;1549;-52
2021/08/24 12:08:46;;;;;;;;;;;;;;;23.60;58.28;100671.41;5044247;28;1602;-52
2021/08/24 12:11:18;;;;;;;;;;;;;;;23.56;57.74;100649.31;5043319;28;1605;-52
2021/08/24 12:13:47;;;;;;;;;;;;;;;23.54;58.37;100666.69;5050142;28;1579;-52
2021/08/24 12:16:31;;;;;;;;;;;;;;;23.53;58.33;100667.69;5053068;28;1665;-52
2021/08/24 12:19:13;;;;;;;;;;;;;;;23.50;58.56;100659.94;5055014;28;1980;-52
2021/08/24 12:21:49;;;;;;;;;;;;;;;23.42;58.87;100661.63;5054501;28;1914;-52
2021/08/24 12:24:37;;;;;;;;;;;;;;;23.47;58.82;100660.28;5056234;28;1378;-52
2021/08/24 12:27:33;;;;;;;;;;;;;;;23.38;58.75;100657.56;5051719;28;1107;-52
2021/08/24 12:30:15;;;;;;;;;;;;;;;23.36;59.01;100638.00;5050271;28;1595;-52
2021/08/24 12:33:02;;;;;;;;;;;;;;;23.38;58.47;100652.16;5055843;28;1142;-51
2021/08/24 12:35:38;;;;;;;;;;;;;;;23.40;58.63;100638.53;5041396;28;1687;-52
2021/08/24 12:38:06;;;;;;;;;;;;;;;23.33;58.39;100616.75;5045988;28;1401;-52
2021/08/24 12:40:59;;;;;;;;;;;;;;;23.38;58.65;100651.34;5043413;28;1980;-52
2021/08/24 12:43:46;;;;;;;;;;;;;;;23.29;59.02;100641.53;5043202;28;1728;-52
2021/08/24 12:46:30;;;;;;;;;;;;;;;23.32;59.08;100633.97;5046410;28;1753;-52
2021/08/24 12:49:29;;;;;;;;;;;;;;;23.33;59.93;100622.13;5036609;28;1328;-52
2021/08/24 12:51:59;;;;;;;;;;;;;;;23.36;60.48;100637.16;5005432;28;1752;-52
2021/08/24 12:54:28;;;;;;;;;;;;;;;23.41;60.97;100640.19;5035203;28;1989;-52
2021/08/24 12:57:09;;;;;;;;;;;;;;;23.48;60.63;100614.22;5047759;28;1595;-52
2021/08/24 12:59:38;;;;;;;;;;;;;;;23.50;60.98;100622.16;5053400;28;1775;-52
2021/08/24 13:02:12;;;;;;;;;;;;;;;23.52;61.19;100626.38;5050126;28;1973;-52
2021/08/24 13:04:42;;;;;;;;;;;;;;;23.81;60.43;100620.47;5049365;28;1573;-51
2021/08/24 13:07:22;;;;;;;;;;;;;;;24.26;59.18;100628.16;5037837;28;1617;-52
2021/08/24 13:09:53;;;;;;;;;;;;;;;24.54;58.89;100615.06;5051039;28;1574;-51
2021/08/24 13:12:35;;;;;;;;;;;;;;;24.77;58.48;100625.91;5053916;28;1605;-51
2021/08/24 13:15:03;;;;;;;;;;;;;;;24.85;57.99;100601.56;5041733;28;1766;-51
2021/08/24 13:17:46;;;;;;;;;;;;;;;24.93;57.48;100614.16;5053349;28;1499;-51
2021/08/24 13:20:15;;;;;;;;;;;;;;;24.97;57.08;100600.13;5049458;28;1951;-51
2021/08/24 13:22:49;;;;;;;;;;;;;;;25.03;57.37;100598.56;5041637;28;1906;-51
2021/08/24 13:25:21;;;;;;;;;;;;;;;25.07;56.82;100599.03;5048113;28;1578;-52
2021/08/24 13:27:49;;;;;;;;;;;;;;;25.12;57.29;100605.59;5048063;28;1862;-52
2021/08/24 13:30:18;;;;;;;;;;;;;;;25.20;57.43;100591.16;5054373;28;1733;-52
2021/08/24 13:32:55;;;;;;;;;;;;;;;25.18;57.72;100606.72;5050512;28;1805;-52